Time,TemperatureF,DewpointF,PressureIn,WindDirection,WindDirectionDegrees,WindSpeedMPH,WindSpeedGustMPH,Humidity,HourlyPrecipIn,Conditions,Clouds,dailyrainin,SoftwareType,DateUTC
2013-02-11 00:02:00,44.0,38.0,-100.00,South,175,17.0,23.0,79,0.00,,,-99.99,,2013-02-11 05:02:00,
2013-02-11 00:12:00,44.0,39.0,-100.00,South,170,17.0,24.0,79,0.00,,,-99.99,,2013-02-11 05:12:00,
2013-02-11 00:22:00,44.0,39.0,-100.00,SSE,160,17.0,25.0,80,0.00,,,-99.99,,2013-02-11 05:22:00,
2013-02-11 00:32:00,44.0,39.0,-100.00,South,170,17.0,27.0,81,0.00,,,-99.99,,2013-02-11 05:32:00,
2013-02-11 00:42:00,44.0,39.0,-100.00,South,175,18.0,27.0,82,0.00,,,-99.99,,2013-02-11 05:42:00,
2013-02-11 00:52:00,44.0,39.0,-100.00,South,170,18.0,27.0,83,0.00,,,-99.99,,2013-02-11 05:52:00,
2013-02-11 01:02:00,44.0,39.0,-100.00,SSE,165,17.0,29.0,83,0.00,,,-99.99,,2013-02-11 06:02:00,
2013-02-11 01:11:00,44.0,40.0,-100.00,South,170,21.0,27.0,84,0.00,,,-99.99,,2013-02-11 06:11:00,
2013-02-11 01:22:00,44.0,40.0,-100.00,South,175,17.0,27.0,84,0.00,,,-99.99,,2013-02-11 06:22:00,
2013-02-11 01:32:00,44.0,40.0,-100.00,South,180,16.0,25.0,85,0.00,,,-99.99,,2013-02-11 06:32:00,
2013-02-11 01:42:00,44.0,40.0,-100.00,South,170,18.0,24.0,85,0.00,,,-99.99,,2013-02-11 06:42:00,
2013-02-11 01:52:00,44.0,40.0,-100.00,South,170,13.0,25.0,86,0.00,,,-99.99,,2013-02-11 06:52:00,
2013-02-11 02:01:00,44.0,41.0,-100.00,South,175,13.0,22.0,87,0.00,,,-99.99,,2013-02-11 07:01:00,
2013-02-11 02:11:00,44.0,41.0,-100.00,SSE,165,15.0,18.0,88,0.00,,,-99.99,,2013-02-11 07:11:00,
2013-02-11 02:21:00,44.0,41.0,-100.00,South,175,13.0,21.0,88,0.00,,,-99.99,,2013-02-11 07:21:00,
2013-02-11 02:32:00,44.0,41.0,-100.00,South,175,14.0,21.0,89,0.00,,,-99.99,,2013-02-11 07:32:00,
2013-02-11 02:42:00,44.0,41.0,-100.00,South,170,16.0,25.0,89,0.00,,,-99.99,,2013-02-11 07:42:00,
2013-02-11 02:52:00,44.0,41.0,-100.00,SSE,165,12.0,19.0,90,0.00,,,-99.99,,2013-02-11 07:52:00,
2013-02-11 03:01:00,44.0,41.0,-100.00,South,170,16.0,24.0,91,0.00,,,-99.99,,2013-02-11 08:01:00,
2013-02-11 03:11:00,44.0,41.0,-100.00,South,180,13.0,23.0,91,0.00,,,-99.99,,2013-02-11 08:11:00,
2013-02-11 03:21:00,44.0,41.0,-100.00,South,170,14.0,23.0,91,0.00,,,-99.99,,2013-02-11 08:21:00,
2013-02-11 03:32:00,44.0,42.0,-100.00,South,170,18.0,23.0,91,0.00,,,-99.99,,2013-02-11 08:32:00,
2013-02-11 03:42:00,44.0,42.0,-100.00,South,170,14.0,25.0,91,0.00,,,-99.99,,2013-02-11 08:42:00,
2013-02-11 03:52:00,44.0,42.0,-100.00,South,175,19.0,27.0,91,0.00,,,-99.99,,2013-02-11 08:52:00,
2013-02-11 04:02:00,44.0,42.0,-100.00,South,170,17.0,24.0,91,0.00,,,-99.99,,2013-02-11 09:02:00,
2013-02-11 04:12:00,44.0,42.0,-100.00,SSE,165,18.0,27.0,91,0.00,,,-99.99,,2013-02-11 09:12:00,
2013-02-11 04:21:00,44.0,42.0,-100.00,South,170,17.0,24.0,91,0.00,,,-99.99,,2013-02-11 09:21:00,
2013-02-11 04:32:00,44.0,42.0,-100.00,SSE,160,18.0,27.0,91,0.00,,,-99.99,,2013-02-11 09:32:00,
2013-02-11 04:42:00,44.0,42.0,-100.00,SSE,165,13.0,19.0,92,0.00,,,-99.99,,2013-02-11 09:42:00,
2013-02-11 04:51:00,44.0,42.0,-100.00,South,180,11.0,19.0,92,0.00,,,-99.99,,2013-02-11 09:51:00,
2013-02-11 05:01:00,44.0,42.0,-100.00,South,185,14.0,23.0,92,0.00,,,-99.99,,2013-02-11 10:01:00,
2013-02-11 05:11:00,44.0,42.0,-100.00,SSE,160,14.0,22.0,92,0.00,,,-99.99,,2013-02-11 10:11:00,
2013-02-11 05:21:00,44.0,42.0,-100.00,South,170,17.0,26.0,92,0.00,,,-99.99,,2013-02-11 10:21:00,
2013-02-11 05:32:00,44.0,42.0,-100.00,South,175,12.0,23.0,92,0.00,,,-99.99,,2013-02-11 10:32:00,
2013-02-11 05:42:00,45.0,43.0,-100.00,South,180,17.0,24.0,92,0.00,,,-99.99,,2013-02-11 10:42:00,
2013-02-11 05:52:00,45.0,42.0,-100.00,South,175,13.0,22.0,91,0.00,,,-99.99,,2013-02-11 10:52:00,
2013-02-11 06:02:00,45.0,42.0,-100.00,South,180,14.0,24.0,92,0.00,,,-99.99,,2013-02-11 11:02:00,
2013-02-11 06:11:00,45.0,42.0,-100.00,South,190,13.0,21.0,91,0.00,,,-99.99,,2013-02-11 11:11:00,
2013-02-11 06:22:00,45.0,42.0,-100.00,South,185,15.0,19.0,91,0.00,,,-99.99,,2013-02-11 11:22:00,
2013-02-11 06:32:00,47.0,43.0,-100.00,SSW,200,18.0,27.0,87,0.00,,,-99.99,,2013-02-11 11:32:00,
2013-02-11 06:42:00,47.0,43.0,-100.00,SSW,195,16.0,22.0,85,0.00,,,-99.99,,2013-02-11 11:42:00,
2013-02-11 06:52:00,47.0,43.0,-100.00,SSW,195,16.0,25.0,86,0.00,,,-99.99,,2013-02-11 11:52:00,
2013-02-11 07:03:00,47.0,43.0,-100.00,SSW,210,18.0,24.0,85,27.20,,,-99.99,,2013-02-11 12:03:00,
2013-02-11 07:12:00,47.0,43.0,-100.00,SW,215,22.0,28.0,85,21.54,,,-99.99,,2013-02-11 12:12:00,
2013-02-11 07:22:00,47.0,41.0,-100.00,SSW,205,25.0,37.0,77,27.76,,,-99.99,,2013-02-11 12:22:00,
2013-02-11 07:32:00,47.0,40.0,-100.00,SSW,210,21.0,32.0,76,27.20,,,-99.99,,2013-02-11 12:32:00,
2013-02-11 07:42:00,47.0,39.0,-100.00,SW,225,24.0,34.0,73,31.18,,,-99.99,,2013-02-11 12:42:00,
2013-02-11 07:52:00,44.0,35.0,-100.00,WSW,240,22.0,38.0,69,-99.99,,,-99.99,,2013-02-11 12:52:00,
2013-02-11 08:02:00,44.0,33.0,-100.00,SW,225,22.0,37.0,65,-99.99,,,-99.99,,2013-02-11 13:02:00,
2013-02-11 08:12:00,43.0,31.0,-100.00,SW,220,26.0,39.0,62,-99.99,,,-99.99,,2013-02-11 13:12:00,
2013-02-11 08:22:00,43.0,30.0,-100.00,SW,225,26.0,34.0,60,-99.99,,,-99.99,,2013-02-11 13:22:00,
2013-02-11 08:33:00,42.0,29.0,-100.00,SW,220,24.0,32.0,59,-99.99,,,-99.99,,2013-02-11 13:33:00,
2013-02-11 08:42:00,42.0,29.0,-100.00,SW,225,26.0,34.0,59,-99.99,,,-99.99,,2013-02-11 13:42:00,
2013-02-11 08:52:00,42.0,29.0,-100.00,SW,215,25.0,36.0,60,31.73,,,-99.99,,2013-02-11 13:52:00,
2013-02-11 09:02:00,42.0,29.0,-100.00,SW,215,23.0,34.0,59,-99.99,,,-99.99,,2013-02-11 14:02:00,
2013-02-11 09:11:00,41.0,29.0,-100.00,SW,225,25.0,35.0,60,-99.99,,,-99.99,,2013-02-11 14:11:00,
2013-02-11 09:22:00,41.0,29.0,-100.00,SSW,210,22.0,32.0,61,-99.99,,,-99.99,,2013-02-11 14:22:00,
2013-02-11 09:33:00,41.0,29.0,-100.00,SW,215,23.0,34.0,62,-99.99,,,-99.99,,2013-02-11 14:33:00,
2013-02-11 09:42:00,41.0,29.0,-100.00,SW,225,25.0,35.0,62,-99.99,,,-99.99,,2013-02-11 14:42:00,
2013-02-11 09:52:00,40.0,29.0,-100.00,SW,215,22.0,32.0,63,0.00,,,-99.99,,2013-02-11 14:52:00,
2013-02-11 10:02:00,40.0,28.0,-100.00,SW,220,24.0,34.0,62,-99.99,,,-99.99,,2013-02-11 15:02:00,
2013-02-11 10:11:00,40.0,28.0,-100.00,SW,215,26.0,35.0,62,-99.99,,,-99.99,,2013-02-11 15:11:00,
2013-02-11 10:22:00,39.0,27.0,-100.00,SW,225,24.0,34.0,62,-99.99,,,-99.99,,2013-02-11 15:22:00,
2013-02-11 10:32:00,38.0,26.0,-100.00,SW,225,23.0,34.0,62,-99.99,,,-99.99,,2013-02-11 15:32:00,
2013-02-11 10:42:00,38.0,26.0,-100.00,WSW,240,24.0,33.0,61,-99.99,,,-99.99,,2013-02-11 15:42:00,
2013-02-11 10:52:00,37.0,26.0,-100.00,SW,235,24.0,32.0,61,-99.99,,,-99.99,,2013-02-11 15:52:00,
2013-02-11 11:02:00,37.0,25.0,-100.00,North,0,22.0,35.0,61,-99.99,,,-99.99,,2013-02-11 16:02:00,
2013-02-11 11:12:00,37.0,26.0,-100.00,SW,230,21.0,32.0,63,-99.99,,,-99.99,,2013-02-11 16:12:00,
2013-02-11 11:22:00,37.0,26.0,-100.00,North,0,23.0,33.0,63,-99.99,,,-99.99,,2013-02-11 16:22:00,
2013-02-11 11:32:00,37.0,25.0,-100.00,North,0,18.0,34.0,63,-99.99,,,-99.99,,2013-02-11 16:32:00,
2013-02-11 11:42:00,37.0,25.0,-100.00,North,0,21.0,35.0,63,-99.99,,,-99.99,,2013-02-11 16:42:00,
2013-02-11 11:52:00,37.0,24.0,-100.00,SW,215,23.0,34.0,61,-99.99,,,-99.99,,2013-02-11 16:52:00,
2013-02-11 12:02:00,36.0,24.0,-100.00,North,0,20.0,32.0,61,-99.99,,,-99.99,,2013-02-11 17:02:00,
2013-02-11 12:11:00,36.0,24.0,-100.00,North,0,22.0,34.0,62,-99.99,,,-99.99,,2013-02-11 17:11:00,
2013-02-11 12:22:00,36.0,24.0,-100.00,North,0,23.0,35.0,61,-99.99,,,-99.99,,2013-02-11 17:22:00,
2013-02-11 12:32:00,36.0,24.0,-100.00,North,0,19.0,34.0,60,-99.99,,,-99.99,,2013-02-11 17:32:00,
2013-02-11 12:42:00,36.0,24.0,-100.00,SW,220,24.0,37.0,60,-99.99,,,-99.99,,2013-02-11 17:42:00,
2013-02-11 12:52:00,36.0,24.0,-100.00,North,0,18.0,34.0,60,-99.99,,,-99.99,,2013-02-11 17:52:00,
2013-02-11 13:02:00,36.0,24.0,-100.00,SW,225,24.0,35.0,61,-99.99,,,-99.99,,2013-02-11 18:02:00,
2013-02-11 13:11:00,36.0,24.0,-100.00,North,0,24.0,35.0,63,-99.99,,,-99.99,,2013-02-11 18:11:00,
2013-02-11 13:22:00,36.0,25.0,-100.00,North,0,21.0,36.0,63,-99.99,,,-99.99,,2013-02-11 18:22:00,
2013-02-11 13:32:00,36.0,24.0,-100.00,North,0,19.0,36.0,62,-99.99,,,-99.99,,2013-02-11 18:32:00,
2013-02-11 13:42:00,36.0,23.0,-100.00,SW,220,21.0,34.0,60,-99.99,,,-99.99,,2013-02-11 18:42:00,
2013-02-11 13:52:00,36.0,22.0,-100.00,SW,230,22.0,34.0,58,-99.99,,,-99.99,,2013-02-11 18:52:00,
2013-02-11 14:02:00,35.0,23.0,-100.00,North,0,21.0,33.0,60,-99.99,,,-99.99,,2013-02-11 19:02:00,
2013-02-11 14:11:00,35.0,23.0,-100.00,North,0,19.0,37.0,61,-99.99,,,-99.99,,2013-02-11 19:11:00,
2013-02-11 14:22:00,35.0,23.0,-100.00,SW,220,22.0,33.0,61,-99.99,,,-99.99,,2013-02-11 19:22:00,
2013-02-11 14:32:00,35.0,22.0,-100.00,North,0,24.0,34.0,58,-99.99,,,-99.99,,2013-02-11 19:32:00,
2013-02-11 14:42:00,35.0,22.0,-100.00,North,0,24.0,34.0,58,-99.99,,,-99.99,,2013-02-11 19:42:00,
2013-02-11 14:51:00,35.0,22.0,-100.00,North,0,23.0,35.0,58,-99.99,,,-99.99,,2013-02-11 19:51:00,
2013-02-11 15:02:00,35.0,23.0,-100.00,SW,225,23.0,33.0,59,-99.99,,,-99.99,,2013-02-11 20:02:00,
2013-02-11 15:11:00,35.0,23.0,-100.00,SW,215,22.0,35.0,59,-99.99,,,-99.99,,2013-02-11 20:11:00,
2013-02-11 15:21:00,35.0,23.0,-100.00,SW,215,22.0,35.0,61,-99.99,,,-99.99,,2013-02-11 20:21:00,
2013-02-11 15:32:00,35.0,24.0,-100.00,North,0,22.0,33.0,62,-99.99,,,-99.99,,2013-02-11 20:32:00,
2013-02-11 15:42:00,35.0,24.0,-100.00,North,0,19.0,31.0,63,-99.99,,,-99.99,,2013-02-11 20:42:00,
2013-02-11 15:52:00,35.0,24.0,-100.00,SW,225,21.0,35.0,62,-99.99,,,-99.99,,2013-02-11 20:52:00,
2013-02-11 16:02:00,35.0,23.0,-100.00,SW,215,23.0,32.0,62,-99.99,,,-99.99,,2013-02-11 21:02:00,
2013-02-11 16:12:00,35.0,24.0,-100.00,North,0,20.0,35.0,63,-99.99,,,-99.99,,2013-02-11 21:12:00,
2013-02-11 16:22:00,35.0,24.0,-100.00,North,0,22.0,37.0,64,-99.99,,,-99.99,,2013-02-11 21:22:00,
2013-02-11 16:32:00,35.0,24.0,-100.00,SW,230,24.0,35.0,64,-99.99,,,-99.99,,2013-02-11 21:32:00,
2013-02-11 16:42:00,35.0,24.0,-100.00,SW,230,24.0,37.0,64,-99.99,,,-99.99,,2013-02-11 21:42:00,
2013-02-11 16:52:00,35.0,24.0,-100.00,North,0,21.0,31.0,64,-99.99,,,-99.99,,2013-02-11 21:52:00,
2013-02-11 17:02:00,35.0,24.0,-100.00,SW,220,25.0,35.0,64,-99.99,,,-99.99,,2013-02-11 22:02:00,
2013-02-11 17:12:00,35.0,24.0,-100.00,SW,220,24.0,32.0,64,-99.99,,,-99.99,,2013-02-11 22:12:00,
2013-02-11 17:22:00,35.0,24.0,-100.00,SW,215,24.0,33.0,64,-99.99,,,-99.99,,2013-02-11 22:22:00,
2013-02-11 17:32:00,35.0,24.0,-100.00,SW,215,25.0,32.0,64,-99.99,,,-99.99,,2013-02-11 22:32:00,
2013-02-11 17:42:00,35.0,24.0,-100.00,SW,225,23.0,33.0,64,-99.99,,,-99.99,,2013-02-11 22:42:00,
2013-02-11 17:52:00,35.0,24.0,-100.00,SW,225,21.0,35.0,64,-99.99,,,-99.99,,2013-02-11 22:52:00,
2013-02-11 18:02:00,35.0,24.0,-100.00,SW,220,22.0,32.0,65,-99.99,,,-99.99,,2013-02-11 23:02:00,
2013-02-11 18:11:00,35.0,25.0,-100.00,North,0,24.0,35.0,66,-99.99,,,-99.99,,2013-02-11 23:11:00,
2013-02-11 18:22:00,35.0,25.0,-100.00,North,0,24.0,35.0,66,-99.99,,,-99.99,,2013-02-11 23:22:00,
2013-02-11 18:32:00,35.0,24.0,-100.00,North,0,25.0,35.0,66,-99.99,,,-99.99,,2013-02-11 23:32:00,
2013-02-11 18:42:00,35.0,24.0,-100.00,SW,225,21.0,34.0,66,-99.99,,,-99.99,,2013-02-11 23:42:00,
2013-02-11 18:52:00,35.0,24.0,-100.00,SW,230,21.0,30.0,66,-99.99,,,-99.99,,2013-02-11 23:52:00,
2013-02-11 19:02:00,35.0,23.0,-100.00,North,0,24.0,36.0,63,-99.99,,,-99.99,,2013-02-12 00:02:00,
2013-02-11 19:12:00,35.0,23.0,-100.00,SW,235,24.0,34.0,63,-99.99,,,-99.99,,2013-02-12 00:12:00,
2013-02-11 19:22:00,34.0,24.0,-100.00,SW,230,19.0,33.0,64,-99.99,,,-99.99,,2013-02-12 00:22:00,
2013-02-11 19:32:00,34.0,24.0,-100.00,SW,215,19.0,31.0,64,-99.99,,,-99.99,,2013-02-12 00:32:00,
2013-02-11 19:42:00,34.0,24.0,-100.00,SW,220,20.0,32.0,65,-99.99,,,-99.99,,2013-02-12 00:42:00,
2013-02-11 19:52:00,34.0,24.0,-100.00,SW,230,17.0,32.0,66,-99.99,,,-99.99,,2013-02-12 00:52:00,
2013-02-11 20:02:00,34.0,24.0,-100.00,SW,230,22.0,32.0,65,-99.99,,,-99.99,,2013-02-12 01:02:00,
2013-02-11 20:11:00,34.0,23.0,-100.00,SW,230,24.0,35.0,63,-99.99,,,-99.99,,2013-02-12 01:11:00,
2013-02-11 20:22:00,34.0,22.0,-100.00,WSW,240,26.0,35.0,62,-99.99,,,-99.99,,2013-02-12 01:22:00,
2013-02-11 20:32:00,34.0,22.0,-100.00,WSW,240,26.0,38.0,61,-99.99,,,-99.99,,2013-02-12 01:32:00,
2013-02-11 20:42:00,34.0,22.0,-100.00,WSW,250,23.0,34.0,62,-99.99,,,-99.99,,2013-02-12 01:42:00,
2013-02-11 20:52:00,34.0,22.0,-100.00,SW,235,25.0,34.0,61,-99.99,,,-99.99,,2013-02-12 01:52:00,
2013-02-11 21:02:00,34.0,22.0,-100.00,WSW,255,22.0,36.0,61,-99.99,,,-99.99,,2013-02-12 02:02:00,
2013-02-11 21:12:00,34.0,22.0,-100.00,WSW,250,25.0,34.0,61,-99.99,,,-99.99,,2013-02-12 02:12:00,
2013-02-11 21:22:00,34.0,22.0,-100.00,SW,230,23.0,35.0,60,-99.99,,,-99.99,,2013-02-12 02:22:00,
2013-02-11 21:32:00,34.0,22.0,-100.00,WSW,240,22.0,33.0,61,-99.99,,,-99.99,,2013-02-12 02:32:00,
2013-02-11 21:42:00,34.0,22.0,-100.00,WSW,250,19.0,34.0,62,-99.99,,,-99.99,,2013-02-12 02:42:00,
2013-02-11 21:52:00,34.0,22.0,-100.00,WSW,245,25.0,32.0,62,-99.99,,,-99.99,,2013-02-12 02:52:00,
2013-02-11 22:02:00,33.0,22.0,-100.00,SW,235,19.0,27.0,63,-99.99,,,-99.99,,2013-02-12 03:02:00,
2013-02-11 22:11:00,33.0,22.0,-100.00,WSW,240,24.0,35.0,62,-99.99,,,-99.99,,2013-02-12 03:11:00,
2013-02-11 22:21:00,33.0,22.0,-100.00,WSW,255,25.0,36.0,63,-99.99,,,-99.99,,2013-02-12 03:21:00,
2013-02-11 22:32:00,33.0,22.0,-100.00,WSW,245,20.0,37.0,63,-99.99,,,-99.99,,2013-02-12 03:32:00,
2013-02-11 22:42:00,33.0,22.0,-100.00,WSW,245,24.0,32.0,63,-99.99,,,-99.99,,2013-02-12 03:42:00,
2013-02-11 22:51:00,33.0,22.0,-100.00,WSW,245,19.0,31.0,64,-99.99,,,-99.99,,2013-02-12 03:51:00,
2013-02-11 23:01:00,33.0,22.0,-100.00,WSW,245,12.0,23.0,64,-99.99,,,-99.99,,2013-02-12 04:01:00,
2013-02-11 23:11:00,33.0,22.0,-100.00,WSW,240,19.0,25.0,65,-99.99,,,-99.99,,2013-02-12 04:11:00,
2013-02-11 23:21:00,33.0,23.0,-100.00,WSW,240,14.0,22.0,65,-99.99,,,-99.99,,2013-02-12 04:21:00,
2013-02-11 23:32:00,33.0,23.0,-100.00,SW,225,12.0,21.0,67,-99.99,,,-99.99,,2013-02-12 04:32:00,
2013-02-11 23:42:00,33.0,23.0,-100.00,WSW,240,17.0,25.0,66,-99.99,,,-99.99,,2013-02-12 04:42:00,
2013-02-11 23:51:00,33.0,22.0,-100.00,WSW,240,20.0,30.0,66,-99.99,,,-99.99,,2013-02-12 04:51:00,